createdAt,value
2019-01-12T00:01:46.432Z,0.90
2019-01-12T00:04:14.385Z,0.43
2019-01-12T00:06:46.644Z,0.77
2019-01-12T00:09:14.669Z,0.80
2019-01-12T00:11:42.715Z,0.50
2019-01-12T00:14:14.312Z,0.80
2019-01-12T00:16:42.376Z,0.67
2019-01-12T00:19:13.043Z,0.57
2019-01-12T00:21:42.258Z,0.63
2019-01-12T00:24:12.195Z,1.00
2019-01-12T00:26:40.897Z,0.90
2019-01-12T00:29:10.051Z,0.90
2019-01-12T00:31:40.603Z,0.70
2019-01-12T00:34:10.548Z,0.80
2019-01-12T00:36:38.483Z,0.97
2019-01-12T00:39:09.641Z,0.60
2019-01-12T00:41:37.701Z,0.80
2019-01-12T00:44:05.999Z,0.83
2019-01-12T00:46:34.000Z,1.00
2019-01-12T00:49:03.370Z,0.80
2019-01-12T00:51:33.376Z,0.70
2019-01-12T00:54:01.319Z,0.70
2019-01-12T00:56:29.639Z,0.80
2019-01-12T00:58:57.738Z,0.77
2019-01-12T01:01:25.659Z,0.60
2019-01-12T01:03:53.619Z,0.80
2019-01-12T01:06:22.719Z,0.77
2019-01-12T01:08:50.684Z,0.60
2019-01-12T01:11:18.803Z,0.60
2019-01-12T01:13:46.727Z,0.90
2019-01-12T01:16:14.678Z,0.80
2019-01-12T01:18:42.944Z,0.70
2019-01-12T01:21:10.995Z,0.60
2019-01-12T01:23:39.032Z,0.70
2019-01-12T01:26:07.117Z,0.70
2019-01-12T01:28:35.272Z,0.70
2019-01-12T01:31:03.374Z,0.93
2019-01-12T01:33:33.444Z,0.73
2019-01-12T01:36:01.468Z,0.70
2019-01-12T01:38:29.596Z,0.80
2019-01-12T01:40:59.912Z,0.90
2019-01-12T01:43:28.615Z,0.70
2019-01-12T01:45:56.859Z,0.80
2019-01-12T01:48:25.105Z,0.67
2019-01-12T01:50:54.352Z,0.87
2019-01-12T01:53:22.312Z,0.57
2019-01-12T01:55:50.351Z,0.77
2019-01-12T01:58:18.263Z,0.70
2019-01-12T02:00:46.348Z,0.70
2019-01-12T02:03:14.332Z,0.73
2019-01-12T02:05:43.492Z,0.67
2019-01-12T02:08:11.684Z,0.73
2019-01-12T02:10:39.813Z,0.87
2019-01-12T02:13:08.153Z,0.77
2019-01-12T02:15:39.193Z,0.77
2019-01-12T02:18:07.181Z,0.93
2019-01-12T02:20:35.152Z,0.80
2019-01-12T02:23:03.064Z,0.60
2019-01-12T02:25:31.124Z,0.90
2019-01-12T02:27:59.065Z,0.53
2019-01-12T02:30:27.380Z,0.87
2019-01-12T02:32:55.445Z,0.53
2019-01-12T02:35:23.789Z,0.90
2019-01-12T02:37:52.251Z,0.67
2019-01-12T02:40:20.243Z,0.40
2019-01-12T02:42:49.119Z,0.80
2019-01-12T02:45:20.027Z,0.80
2019-01-12T02:47:48.040Z,0.80
2019-01-12T02:50:17.119Z,0.50
2019-01-12T02:52:45.326Z,0.83
2019-01-12T02:55:13.459Z,0.90
2019-01-12T02:57:41.527Z,0.90
2019-01-12T03:00:14.240Z,0.60
2019-01-12T03:02:42.312Z,0.90
2019-01-12T03:05:10.256Z,1.00
2019-01-12T03:07:39.919Z,0.87
2019-01-12T03:10:08.730Z,1.00
2019-01-12T03:12:37.925Z,0.80
2019-01-12T03:15:07.519Z,0.60
2019-01-12T03:17:37.168Z,0.80
2019-01-12T03:20:06.144Z,0.70
2019-01-12T03:22:36.428Z,0.63
2019-01-12T03:25:07.421Z,0.87
2019-01-12T03:27:35.366Z,0.90
2019-01-12T03:30:05.164Z,0.83
2019-01-12T03:32:35.477Z,0.70
2019-01-12T03:35:03.445Z,0.90
2019-01-12T03:37:31.481Z,1.03
2019-01-12T03:39:59.482Z,0.90
2019-01-12T03:42:28.489Z,0.80
2019-01-12T03:44:59.096Z,0.60
2019-01-12T03:47:27.060Z,1.00
2019-01-12T03:49:56.295Z,0.50
2019-01-12T03:52:24.394Z,0.60
2019-01-12T03:54:52.424Z,0.80
2019-01-12T03:57:20.823Z,0.43
2019-01-12T03:59:52.178Z,0.80
2019-01-12T04:02:20.275Z,0.80
2019-01-12T04:04:53.790Z,0.60
2019-01-12T04:07:21.785Z,0.60
2019-01-12T04:09:49.813Z,0.90
2019-01-12T04:12:18.004Z,1.00
2019-01-12T04:14:48.211Z,0.50
2019-01-12T04:17:19.560Z,0.63
2019-01-12T04:19:49.758Z,0.53
2019-01-12T04:22:20.214Z,0.70
2019-01-12T04:24:48.267Z,0.80
2019-01-12T04:27:16.270Z,0.80
2019-01-12T04:29:44.284Z,0.80
2019-01-12T04:32:12.332Z,0.70
2019-01-12T04:34:40.391Z,0.50
2019-01-12T04:37:08.347Z,0.70
2019-01-12T04:39:36.355Z,0.77
2019-01-12T04:42:04.317Z,0.80
2019-01-12T04:44:36.730Z,0.60
2019-01-12T04:47:04.659Z,0.70
2019-01-12T04:49:32.584Z,0.70
2019-01-12T04:52:00.545Z,0.80
2019-01-12T04:54:29.515Z,0.70
2019-01-12T04:56:57.515Z,0.80
2019-01-12T04:59:25.424Z,0.90
2019-01-12T05:01:53.466Z,0.70
2019-01-12T05:04:21.425Z,0.80
2019-01-12T05:06:49.796Z,0.63
2019-01-12T05:09:18.816Z,0.90
2019-01-12T05:11:49.373Z,0.97
2019-01-12T05:14:18.605Z,0.97
2019-01-12T05:16:46.668Z,0.83
2019-01-12T05:19:14.601Z,0.80
2019-01-12T05:21:42.599Z,0.90
2019-01-12T05:24:10.495Z,0.67
2019-01-12T05:26:42.637Z,0.73
2019-01-12T05:29:10.783Z,0.50
2019-01-12T05:31:38.800Z,0.60
2019-01-12T05:34:06.806Z,0.80
2019-01-12T05:36:35.838Z,0.90
2019-01-12T05:39:06.224Z,0.90
2019-01-12T05:41:34.365Z,1.00
2019-01-12T05:44:02.389Z,0.60
2019-01-12T05:46:34.158Z,0.80
2019-01-12T05:49:02.204Z,1.00
2019-01-12T05:51:30.108Z,0.83
2019-01-12T05:53:58.056Z,0.70
2019-01-12T05:56:25.968Z,0.70
2019-01-12T05:58:55.148Z,0.80
2019-01-12T06:01:23.063Z,1.00
2019-01-12T06:03:52.031Z,1.00
2019-01-12T06:06:22.298Z,0.60
2019-01-12T06:08:53.039Z,0.80
2019-01-12T06:11:20.956Z,0.73
2019-01-12T06:13:49.346Z,1.10
2019-01-12T06:16:19.950Z,1.10
2019-01-12T06:18:47.979Z,1.00
2019-01-12T06:21:16.057Z,0.70
2019-01-12T06:23:44.184Z,0.70
2019-01-12T06:26:12.777Z,1.00
2019-01-12T06:28:40.888Z,0.80
2019-01-12T06:31:10.777Z,0.87
2019-01-12T06:33:38.829Z,0.80
2019-01-12T06:36:06.853Z,0.87
2019-01-12T06:38:45.047Z,0.87
2019-01-12T06:41:14.875Z,1.10
2019-01-12T06:43:43.184Z,0.93
2019-01-12T06:46:14.063Z,1.20
2019-01-12T06:48:42.012Z,1.83
2019-01-12T06:51:14.123Z,1.70
2019-01-12T06:53:42.155Z,1.20
2019-01-12T06:56:11.420Z,0.73
2019-01-12T06:58:39.851Z,0.90
2019-01-12T07:01:07.820Z,1.10
2019-01-12T07:03:36.010Z,0.90
2019-01-12T07:06:05.403Z,1.20
2019-01-12T07:08:33.446Z,0.90
2019-01-12T07:11:04.040Z,1.07
2019-01-12T07:13:32.870Z,0.87
2019-01-12T07:16:04.152Z,0.77
2019-01-12T07:18:32.092Z,0.77
2019-01-12T07:21:00.927Z,0.77
2019-01-12T07:23:28.955Z,1.00
2019-01-12T07:25:56.956Z,0.80
2019-01-12T07:28:26.645Z,0.87
2019-01-12T07:30:54.732Z,0.73
2019-01-12T07:33:25.021Z,0.93
2019-01-12T07:35:52.958Z,1.00
2019-01-12T07:38:22.153Z,0.63
2019-01-12T07:40:50.259Z,0.77
2019-01-12T07:43:18.364Z,0.77
2019-01-12T07:45:46.420Z,0.80
2019-01-12T07:48:14.470Z,3.10
2019-01-12T07:50:42.764Z,1.13
2019-01-12T07:53:11.327Z,1.67
2019-01-12T07:55:40.596Z,1.80
2019-01-12T07:58:08.516Z,1.37
2019-01-12T08:00:37.304Z,1.03
2019-01-12T08:03:05.248Z,0.87
2019-01-12T08:05:33.239Z,0.97
2019-01-12T08:08:01.171Z,0.83
2019-01-12T08:10:29.544Z,1.00
2019-01-12T08:12:57.540Z,1.00
2019-01-12T08:15:25.532Z,1.00
2019-01-12T08:17:53.471Z,3.17
2019-01-12T08:20:22.528Z,2.17
2019-01-12T08:22:53.821Z,3.07
2019-01-12T08:25:22.025Z,1.90
2019-01-12T08:27:50.456Z,1.50
2019-01-12T08:30:23.089Z,2.20
2019-01-12T08:32:49.271Z,1.00
2019-01-12T08:35:20.591Z,0.77
2019-01-12T08:37:50.683Z,0.87
2019-01-12T08:40:20.760Z,0.90
2019-01-12T08:42:49.692Z,1.07
2019-01-12T08:45:18.936Z,0.90
2019-01-12T08:47:47.210Z,0.80
2019-01-12T08:50:18.493Z,0.73
2019-01-12T08:52:48.022Z,0.90
2019-01-12T08:55:16.015Z,0.80
2019-01-12T08:57:44.397Z,0.80
2019-01-12T09:00:13.883Z,0.90
2019-01-12T09:02:41.808Z,0.90
2019-01-12T09:05:09.843Z,0.70
2019-01-12T09:07:38.251Z,1.00
2019-01-12T09:10:07.327Z,1.23
2019-01-12T09:12:46.768Z,1.27
2019-01-12T09:15:14.916Z,1.00
2019-01-12T09:17:43.288Z,1.03
2019-01-12T09:20:12.388Z,1.00
2019-01-12T09:22:41.755Z,1.00
2019-01-12T09:25:10.220Z,1.40
2019-01-12T09:27:39.229Z,1.00
2019-01-12T09:30:10.108Z,1.20
2019-01-12T09:32:38.040Z,1.10
2019-01-12T09:35:06.226Z,1.93
2019-01-12T09:37:34.239Z,2.10
2019-01-12T09:40:02.457Z,2.00
2019-01-12T09:42:31.693Z,1.60
2019-01-12T09:44:59.684Z,1.00
2019-01-12T09:47:27.808Z,1.23
2019-01-12T09:49:59.424Z,1.20
2019-01-12T09:52:27.732Z,1.00
2019-01-12T09:54:58.648Z,1.17
2019-01-12T09:57:26.736Z,1.17
2019-01-12T09:59:54.689Z,1.30
2019-01-12T10:02:22.812Z,1.07
2019-01-12T10:04:52.644Z,0.93
2019-01-12T10:07:20.567Z,1.10
2019-01-12T10:09:50.320Z,1.17
2019-01-12T10:12:19.350Z,0.87
2019-01-12T10:14:47.288Z,0.80
2019-01-12T10:17:15.187Z,1.03
2019-01-12T10:19:43.199Z,0.90
2019-01-12T10:22:14.333Z,0.80
2019-01-12T10:24:42.379Z,1.00
2019-01-12T10:27:10.464Z,0.80
2019-01-12T10:29:40.831Z,1.03
2019-01-12T10:32:09.815Z,0.80
2019-01-12T10:34:39.392Z,0.93
2019-01-12T10:37:09.590Z,0.80
2019-01-12T10:39:41.049Z,0.80
2019-01-12T10:42:10.113Z,0.70
2019-01-12T10:44:40.012Z,0.90
2019-01-12T10:47:07.938Z,1.00
2019-01-12T10:49:38.760Z,0.90
2019-01-12T10:52:09.709Z,1.03
2019-01-12T10:54:38.387Z,0.87
2019-01-12T10:57:06.761Z,0.60
2019-01-12T10:59:34.836Z,0.87
2019-01-12T11:02:03.777Z,0.70
2019-01-12T11:04:31.900Z,0.80
2019-01-12T11:06:59.834Z,0.80
2019-01-12T11:09:28.090Z,0.90
2019-01-12T11:11:57.427Z,0.97
2019-01-12T11:14:25.396Z,0.80
2019-01-12T11:16:56.358Z,1.27
2019-01-12T11:19:24.370Z,0.90
2019-01-12T11:21:52.921Z,0.80
2019-01-12T11:24:23.582Z,1.10
2019-01-12T11:26:51.647Z,0.90
2019-01-12T11:29:20.958Z,0.90
2019-01-12T11:31:50.131Z,1.00
2019-01-12T11:34:18.078Z,0.90
2019-01-12T11:36:46.063Z,1.00
2019-01-12T11:39:14.371Z,0.90
2019-01-12T11:41:44.368Z,1.00
2019-01-12T11:44:12.579Z,0.90
2019-01-12T11:46:41.655Z,0.80
2019-01-12T11:49:13.688Z,0.97
2019-01-12T11:51:41.731Z,0.80
2019-01-12T11:54:09.744Z,0.90
2019-01-12T11:56:37.712Z,0.90
2019-01-12T11:59:05.652Z,0.90
2019-01-12T12:01:34.931Z,1.10
2019-01-12T12:04:02.907Z,1.00
2019-01-12T12:06:30.864Z,0.97
2019-01-12T12:08:58.848Z,1.10
2019-01-12T12:11:27.975Z,1.33
2019-01-12T12:13:55.909Z,1.00
2019-01-12T12:16:26.583Z,0.90
2019-01-12T12:18:54.674Z,0.90
2019-01-12T12:21:22.979Z,1.10
2019-01-12T12:23:52.501Z,0.93
2019-01-12T12:26:22.798Z,0.83
2019-01-12T12:28:50.903Z,0.70
2019-01-12T12:31:18.875Z,1.07
2019-01-12T12:33:47.212Z,1.93
2019-01-12T12:36:16.589Z,1.10
2019-01-12T12:38:44.531Z,2.63
2019-01-12T12:41:16.540Z,2.27
2019-01-12T12:43:44.690Z,1.07
2019-01-12T12:46:12.711Z,1.10
2019-01-12T12:48:40.632Z,1.20
2019-01-12T12:51:08.599Z,1.40
2019-01-12T12:53:39.447Z,1.10
2019-01-12T12:56:07.384Z,1.20
2019-01-12T12:58:37.729Z,1.90
2019-01-12T13:01:05.737Z,1.43
2019-01-12T13:03:34.635Z,1.83
2019-01-12T13:06:02.634Z,2.10
2019-01-12T13:08:30.659Z,1.70
2019-01-12T13:10:58.627Z,1.67
2019-01-12T13:13:27.700Z,2.10
2019-01-12T13:15:55.740Z,2.17
2019-01-12T13:18:25.685Z,2.13
2019-01-12T13:20:54.556Z,2.23
2019-01-12T13:23:23.636Z,2.20
2019-01-12T13:25:51.671Z,2.80
2019-01-12T13:28:19.652Z,2.20
2019-01-12T13:30:48.948Z,1.80
2019-01-12T13:33:16.973Z,2.70
2019-01-12T13:35:44.932Z,1.77
2019-01-12T13:38:15.968Z,2.10
2019-01-12T13:40:43.900Z,2.10
2019-01-12T13:43:11.880Z,2.00
2019-01-12T13:45:39.879Z,2.33
2019-01-12T13:48:07.804Z,2.47
2019-01-12T13:50:36.832Z,2.83
2019-01-12T13:53:05.402Z,4.63
2019-01-12T13:55:33.452Z,3.77
2019-01-12T13:58:03.172Z,3.00
2019-01-12T14:00:39.125Z,3.50
2019-01-12T14:03:08.045Z,4.07
2019-01-12T14:05:36.279Z,4.67
2019-01-12T14:08:04.917Z,4.30
2019-01-12T14:10:32.911Z,4.20
2019-01-12T14:13:01.185Z,3.43
2019-01-12T14:15:29.329Z,3.80
2019-01-12T14:17:57.300Z,3.67
2019-01-12T14:20:50.427Z,3.03
2019-01-12T14:23:20.653Z,4.37
2019-01-12T14:25:49.767Z,4.23
2019-01-12T14:28:17.775Z,4.50
2019-01-12T14:30:45.707Z,4.93
2019-01-12T14:33:13.904Z,3.90
2019-01-12T14:35:41.951Z,3.00
2019-01-12T14:38:09.956Z,2.40
2019-01-12T14:40:38.017Z,2.27
2019-01-12T14:43:05.948Z,2.60
2019-01-12T14:45:37.109Z,2.40
2019-01-12T14:48:05.296Z,2.50
2019-01-12T14:50:33.460Z,2.40
2019-01-12T14:53:03.245Z,2.13
2019-01-12T14:55:32.430Z,2.40
2019-01-12T14:58:02.509Z,2.10
2019-01-12T15:00:30.036Z,1.80
2019-01-12T15:02:58.033Z,1.57
2019-01-12T15:05:27.234Z,1.70
2019-01-12T15:08:02.518Z,1.80
2019-01-12T15:10:35.354Z,1.50
2019-01-12T15:13:03.402Z,2.70
2019-01-12T15:15:32.414Z,2.70
2019-01-12T15:18:02.619Z,2.57
2019-01-12T15:20:30.798Z,2.70
2019-01-12T15:22:58.981Z,1.70
2019-01-12T15:25:26.931Z,2.30
2019-01-12T15:27:57.937Z,1.37
2019-01-12T15:30:29.739Z,1.30
2019-01-12T15:32:57.862Z,1.50
2019-01-12T15:35:27.127Z,1.63
2019-01-12T15:37:55.176Z,1.30
2019-01-12T15:40:24.988Z,2.10
2019-01-12T15:42:54.196Z,2.80
2019-01-12T15:45:23.067Z,2.17
2019-01-12T15:48:08.306Z,2.50
2019-01-12T15:50:36.343Z,2.33
2019-01-12T15:53:06.248Z,2.60
2019-01-12T15:55:34.925Z,2.00
2019-01-12T15:58:03.157Z,2.60
2019-01-12T16:00:31.250Z,2.70
2019-01-12T16:02:59.314Z,2.20
2019-01-12T16:05:29.972Z,2.80
2019-01-12T16:07:58.096Z,2.13
2019-01-12T16:10:28.052Z,2.10
2019-01-12T16:12:57.663Z,1.83
2019-01-12T16:15:27.071Z,2.37
2019-01-12T16:17:55.170Z,3.03
2019-01-12T16:20:30.406Z,3.80
2019-01-12T16:23:00.848Z,2.87
2019-01-12T16:25:29.088Z,3.47
2019-01-12T16:27:59.167Z,4.50
2019-01-12T16:30:27.173Z,3.30
2019-01-12T16:32:55.576Z,3.07
2019-01-12T16:35:24.547Z,3.50
2019-01-12T16:38:02.661Z,5.83
2019-01-12T16:40:33.375Z,4.57
2019-01-12T16:43:02.085Z,2.47
2019-01-12T16:45:30.604Z,2.10
2019-01-12T16:48:01.519Z,18.90
2019-01-12T16:50:33.033Z,5.73
2019-01-12T16:53:03.985Z,3.20
2019-01-12T16:55:36.735Z,3.70
2019-01-12T16:58:05.699Z,2.60
2019-01-12T17:00:35.707Z,2.37
2019-01-12T17:03:12.217Z,2.70
2019-01-12T17:05:53.599Z,3.03
2019-01-12T17:08:26.905Z,3.03
2019-01-12T17:10:56.519Z,4.40
2019-01-12T17:13:24.588Z,6.30
2019-01-12T17:15:58.321Z,5.63
2019-01-12T17:18:31.975Z,6.40
2019-01-12T17:21:03.727Z,6.53
2019-01-12T17:23:33.070Z,6.63
2019-01-12T17:26:01.313Z,5.40
2019-01-12T17:28:37.350Z,4.10
2019-01-12T17:31:02.557Z,3.10
2019-01-12T17:33:33.722Z,3.10
2019-01-12T17:36:04.752Z,3.30
2019-01-12T17:38:33.458Z,3.73
2019-01-12T17:41:02.405Z,4.00
2019-01-12T17:43:38.386Z,3.17
2019-01-12T17:46:15.019Z,2.50
2019-01-12T17:48:46.081Z,2.07
2019-01-12T17:51:14.621Z,5.37
2019-01-12T17:53:43.483Z,6.07
2019-01-12T17:56:11.625Z,5.97
2019-01-12T17:58:44.611Z,5.40
2019-01-12T18:01:16.079Z,3.90
2019-01-12T18:03:44.415Z,4.10
2019-01-12T18:06:13.718Z,3.17
2019-01-12T18:08:49.256Z,5.13
2019-01-12T18:11:19.770Z,9.13
2019-01-12T18:13:51.073Z,4.43
2019-01-12T18:16:21.697Z,3.13
2019-01-12T18:18:58.536Z,9.63
2019-01-12T18:21:27.507Z,9.20
2019-01-12T18:23:56.066Z,5.10
2019-01-12T18:26:27.284Z,2.90
2019-01-12T18:28:55.392Z,2.70
2019-01-12T18:31:23.505Z,3.27
2019-01-12T18:33:52.191Z,3.27
2019-01-12T18:36:23.798Z,2.50
2019-01-12T18:38:59.124Z,2.90
2019-01-12T18:41:29.098Z,2.40
2019-01-12T18:43:59.719Z,2.40
2019-01-12T18:46:29.309Z,3.27
2019-01-12T18:49:04.188Z,2.00
2019-01-12T18:51:33.241Z,2.47
2019-01-12T18:54:01.374Z,2.90
2019-01-12T18:56:32.808Z,4.20
2019-01-12T18:59:09.901Z,5.37
2019-01-12T19:01:41.080Z,18.47
2019-01-12T19:04:12.809Z,9.40
2019-01-12T19:06:44.095Z,6.67
2019-01-12T19:09:25.214Z,5.30
2019-01-12T19:11:54.251Z,3.17
2019-01-12T19:14:22.426Z,4.03
2019-01-12T19:17:01.527Z,4.50
2019-01-12T19:19:29.880Z,4.40
2019-01-12T19:21:58.298Z,5.63
2019-01-12T19:24:30.728Z,5.10
2019-01-12T19:27:01.308Z,4.00
2019-01-12T19:29:33.857Z,3.60
2019-01-12T19:32:08.467Z,3.70
2019-01-12T19:34:39.498Z,2.90
2019-01-12T19:37:12.566Z,4.73
2019-01-12T19:39:43.193Z,8.63
2019-01-12T19:42:16.038Z,4.90
2019-01-12T19:44:53.223Z,5.50
2019-01-12T19:47:35.762Z,5.20
2019-01-12T19:50:14.266Z,6.47
2019-01-12T19:52:42.844Z,5.80
2019-01-12T19:55:11.175Z,5.40
2019-01-12T19:57:51.334Z,27.17
2019-01-12T20:00:19.233Z,6.33
2019-01-12T20:02:58.255Z,5.10
2019-01-12T20:05:23.870Z,5.00
2019-01-12T20:07:53.601Z,5.40
2019-01-12T20:10:46.703Z,13.97
2019-01-12T20:13:15.305Z,5.43
2019-01-12T20:15:44.244Z,6.50
2019-01-12T20:18:20.901Z,6.17
2019-01-12T20:20:55.465Z,4.90
2019-01-12T20:23:23.979Z,4.40
2019-01-12T20:25:54.556Z,6.40
2019-01-12T20:28:32.576Z,5.37
2019-01-12T20:31:20.088Z,4.10
2019-01-12T20:33:50.900Z,3.90
2019-01-12T20:36:25.618Z,4.23
2019-01-12T20:39:02.886Z,5.70
2019-01-12T20:41:45.233Z,3.97
2019-01-12T20:44:28.739Z,3.87
2019-01-12T20:47:15.458Z,3.57
2019-01-12T20:49:53.635Z,3.57
2019-01-12T20:52:43.425Z,4.80
2019-01-12T20:55:21.489Z,4.10
2019-01-12T20:58:07.419Z,3.77
2019-01-12T21:01:09.863Z,10.97
2019-01-12T21:04:04.313Z,8.83
2019-01-12T21:07:01.550Z,7.70
2019-01-12T21:09:47.834Z,4.30
2019-01-12T21:12:42.685Z,4.77
2019-01-12T21:15:13.423Z,22.13
2019-01-12T21:17:57.683Z,8.00
2019-01-12T21:20:25.713Z,4.47
2019-01-12T21:23:20.511Z,5.47
2019-01-12T21:25:49.058Z,4.50
2019-01-12T21:28:22.352Z,4.87
2019-01-12T21:30:55.262Z,4.63
2019-01-12T21:33:33.637Z,5.60
2019-01-12T21:36:05.169Z,5.30
2019-01-12T21:38:36.075Z,10.43
2019-01-12T21:41:10.585Z,11.30
2019-01-12T21:43:44.518Z,25.53
2019-01-12T21:46:18.952Z,10.03
2019-01-12T21:48:47.367Z,9.63
2019-01-12T21:51:22.549Z,4.70
2019-01-12T21:53:58.060Z,5.00
2019-01-12T21:56:26.367Z,3.90
2019-01-12T21:59:01.876Z,4.97
2019-01-12T22:01:36.264Z,3.60
2019-01-12T22:04:04.370Z,3.20
2019-01-12T22:06:37.875Z,3.20
2019-01-12T22:09:15.889Z,3.37
2019-01-12T22:11:46.633Z,2.70
2019-01-12T22:14:14.943Z,2.73
2019-01-12T22:16:43.968Z,3.17
2019-01-12T22:19:19.707Z,3.70
2019-01-12T22:21:48.216Z,4.67
2019-01-12T22:24:21.215Z,4.07
2019-01-12T22:26:52.653Z,3.70
2019-01-12T22:29:21.964Z,2.90
2019-01-12T22:31:50.965Z,3.37
2019-01-12T22:34:21.380Z,2.60
2019-01-12T22:37:12.698Z,2.60
2019-01-12T22:39:41.244Z,2.80
2019-01-12T22:42:10.144Z,3.10
2019-01-12T22:44:40.820Z,2.43
2019-01-12T22:47:13.898Z,2.77
2019-01-12T22:49:49.960Z,3.20
2019-01-12T22:52:20.155Z,2.60
2019-01-12T22:54:48.354Z,3.50
2019-01-12T22:57:27.125Z,3.07
2019-01-12T22:59:58.053Z,3.37
2019-01-12T23:02:30.504Z,2.87
2019-01-12T23:04:59.132Z,2.40
2019-01-12T23:07:27.284Z,2.97
2019-01-12T23:09:57.896Z,2.27
2019-01-12T23:12:28.223Z,2.53
2019-01-12T23:14:56.551Z,2.40
2019-01-12T23:17:24.657Z,2.70
2019-01-12T23:19:52.798Z,1.83
2019-01-12T23:22:20.850Z,1.80
2019-01-12T23:24:49.034Z,2.10
2019-01-12T23:27:17.557Z,2.13
2019-01-12T23:29:45.945Z,2.40
2019-01-12T23:32:14.128Z,2.30
2019-01-12T23:34:42.674Z,2.03
2019-01-12T23:37:11.130Z,2.17
2019-01-12T23:39:39.599Z,1.90
2019-01-12T23:42:08.887Z,1.90
2019-01-12T23:44:36.902Z,2.10
2019-01-12T23:47:05.288Z,2.10
2019-01-12T23:49:35.018Z,2.30
2019-01-12T23:52:03.470Z,1.83
2019-01-12T23:54:31.507Z,1.73
2019-01-12T23:57:00.868Z,1.90
2019-01-12T23:59:29.391Z,1.87
